Time;durP1;ratioP1;P1;durP2;ratioP2;P2;SDS_P1;SDS_P2;PMS_P1;PMS_P2;Temp;Humidity;BMP_temperature;BMP_pressure;BME280_temperature;BME280_humidity;BME280_pressure;Samples;Min_cycle;Max_cycle;Signal;HPM_P1;HPM_P2
2022/10/13 00:01:20;;;;;;;12.50;9.63;;;14.60;94.40;;;;;;5057537;28;20199;-86
2022/10/13 00:03:46;;;;;;;11.13;10.03;;;14.70;94.30;;;;;;5051067;28;20227;-86
2022/10/13 00:06:14;;;;;;;10.37;8.90;;;14.60;94.00;;;;;;5055040;28;20227;-86
2022/10/13 00:08:40;;;;;;;10.50;9.37;;;14.50;92.90;;;;;;5055236;28;20310;-86
2022/10/13 00:11:28;;;;;;;11.50;9.80;;;14.30;93.50;;;;;;5057309;28;20241;-86
2022/10/13 00:14:00;;;;;;;11.33;8.93;;;14.20;94.70;;;;;;5060625;28;20557;-86
2022/10/13 00:16:26;;;;;;;9.47;8.53;;;14.20;95.70;;;;;;5060656;28;20605;-86
2022/10/13 00:18:52;;;;;;;11.37;10.23;;;14.20;95.70;;;;;;5041627;28;20204;-86
2022/10/13 00:21:21;;;;;;;9.57;8.67;;;14.30;95.60;;;;;;5056841;28;20188;-86
2022/10/13 00:23:47;;;;;;;9.10;8.17;;;14.20;93.70;;;;;;5058859;28;20624;-86
2022/10/13 00:26:15;;;;;;;11.90;8.70;;;14.20;93.50;;;;;;5060677;28;20246;-86
2022/10/13 00:28:41;;;;;;;10.17;8.93;;;14.20;92.80;;;;;;5061314;28;20266;-86
2022/10/13 00:31:27;;;;;;;9.13;8.30;;;14.10;91.20;;;;;;5057497;28;20184;-85
2022/10/13 00:33:53;;;;;;;9.17;7.90;;;14.00;92.70;;;;;;5074126;28;20227;-86
2022/10/13 00:36:20;;;;;;;9.30;8.40;;;14.00;93.00;;;;;;5072720;28;20181;-86
2022/10/13 00:38:46;;;;;;;9.27;8.37;;;14.00;92.90;;;;;;5069225;28;20168;-86
2022/10/13 00:41:12;;;;;;;8.87;8.00;;;14.10;92.30;;;;;;5073337;28;20545;-86
2022/10/13 00:43:59;;;;;;;10.07;8.97;;;14.10;92.10;;;;;;5060028;28;20212;-86
2022/10/13 00:46:39;;;;;;;10.27;8.87;;;14.10;91.50;;;;;;5059996;28;20271;-86
2022/10/13 00:49:10;;;;;;;10.60;9.53;;;14.00;92.20;;;;;;5057179;28;20193;-86
2022/10/13 00:51:42;;;;;;;12.90;10.20;;;14.00;92.50;;;;;;5059015;28;20202;-86
2022/10/13 00:54:12;;;;;;;13.93;9.33;;;14.00;92.80;;;;;;5058952;28;20563;-86
2022/10/13 00:56:41;;;;;;;11.77;9.47;;;14.10;91.90;;;;;;5060137;28;20272;-86
2022/10/13 00:59:21;;;;;;;9.93;8.93;;;14.00;92.60;;;;;;5060416;28;20197;-86
2022/10/13 01:01:50;;;;;;;12.77;8.80;;;14.00;93.00;;;;;;5060343;28;20225;-86
2022/10/13 01:04:17;;;;;;;9.90;8.90;;;13.90;92.50;;;;;;5058816;28;20215;-86
2022/10/13 01:06:44;;;;;;;10.87;9.77;;;13.90;92.70;;;;;;5056265;28;20211;-86
2022/10/13 01:09:09;;;;;;;10.87;9.87;;;13.90;93.20;;;;;;5057825;28;20223;-86
2022/10/13 01:11:56;;;;;;;11.53;9.23;;;13.90;93.10;;;;;;5052671;28;20177;-86
2022/10/13 01:14:43;;;;;;;12.77;11.57;;;13.90;92.80;;;;;;5056695;28;20191;-86
2022/10/13 01:17:21;;;;;;;11.47;10.33;;;13.90;93.90;;;;;;5059223;28;20217;-86
2022/10/13 01:20:00;;;;;;;13.07;11.80;;;13.80;94.30;;;;;;5056580;28;20184;-86
2022/10/13 01:22:35;;;;;;;13.07;11.63;;;13.80;94.50;;;;;;5055119;28;20456;-86
2022/10/13 01:25:25;;;;;;;11.13;10.13;;;13.70;95.90;;;;;;5057757;28;20668;-86
2022/10/13 01:28:18;;;;;;;15.20;11.63;;;13.80;96.00;;;;;;5055380;28;20208;-86
2022/10/13 01:30:51;;;;;;;13.50;11.50;;;13.80;95.40;;;;;;5058030;28;20184;-86
2022/10/13 01:33:41;;;;;;;12.13;10.93;;;13.80;95.80;;;;;;5056628;28;20214;-86
2022/10/13 01:36:20;;;;;;;11.47;10.37;;;13.70;95.90;;;;;;5055798;28;20546;-87
2022/10/13 01:39:06;;;;;;;13.33;10.13;;;13.80;95.00;;;;;;5057849;28;20188;-86
2022/10/13 01:41:45;;;;;;;11.00;10.00;;;13.90;94.40;;;;;;5058935;28;20196;-86
2022/10/13 01:44:16;;;;;;;12.30;10.80;;;13.90;94.00;;;;;;5050528;28;20187;-86
2022/10/13 01:46:44;;;;;;;11.63;10.37;;;13.90;93.90;;;;;;5056416;28;20679;-86
2022/10/13 01:49:12;;;;;;;11.50;10.00;;;13.90;93.80;;;;;;5058721;28;20245;-86
2022/10/13 01:51:39;;;;;;;12.37;10.13;;;13.90;93.80;;;;;;5058292;28;20190;-86
2022/10/13 01:54:05;;;;;;;11.17;10.20;;;13.90;94.50;;;;;;5058098;28;20196;-86
2022/10/13 01:56:31;;;;;;;13.47;10.60;;;14.00;94.20;;;;;;5058116;28;20188;-86
2022/10/13 01:59:01;;;;;;;12.03;10.90;;;13.90;94.50;;;;;;5058279;28;20204;-86
2022/10/13 02:01:42;;;;;;;14.70;12.27;;;13.90;95.90;;;;;;5045114;28;20189;-85
2022/10/13 02:04:31;;;;;;;13.87;12.67;;;13.90;96.90;;;;;;5052829;28;20241;-86
2022/10/13 02:07:27;;;;;;;12.00;10.97;;;13.80;98.10;;;;;;5037137;28;20250;-88
2022/10/13 02:10:37;;;;;;;11.37;10.37;;;13.80;98.50;;;;;;5054663;28;20215;-85
2022/10/13 02:13:06;;;;;;;11.20;10.30;;;13.90;97.70;;;;;;5054115;28;20280;-86
2022/10/13 02:15:51;;;;;;;11.47;10.37;;;13.90;98.40;;;;;;5058343;28;20293;-86
2022/10/13 02:18:21;;;;;;;12.13;10.93;;;14.00;97.70;;;;;;5058797;28;20191;-86
2022/10/13 02:20:47;;;;;;;11.63;10.63;;;13.90;97.60;;;;;;5057948;28;20253;-85
2022/10/13 02:23:15;;;;;;;10.53;9.53;;;13.90;98.10;;;;;;5058012;28;20276;-88
2022/10/13 02:25:42;;;;;;;11.13;10.03;;;14.00;96.90;;;;;;5058015;28;20206;-85
2022/10/13 02:28:09;;;;;;;10.17;9.27;;;14.00;96.00;;;;;;5055369;28;20260;-85
2022/10/13 02:30:38;;;;;;;10.53;9.47;;;14.00;96.10;;;;;;5057727;28;20476;-86
2022/10/13 02:33:04;;;;;;;11.10;10.03;;;14.00;95.80;;;;;;5056870;28;20235;-86
2022/10/13 02:35:31;;;;;;;10.17;9.40;;;14.00;96.10;;;;;;5065231;28;20183;-85
2022/10/13 02:37:57;;;;;;;10.50;9.37;;;14.00;95.60;;;;;;5067167;28;20268;-86
2022/10/13 02:40:23;;;;;;;10.23;9.20;;;14.10;96.00;;;;;;5064611;28;20199;-86
2022/10/13 02:42:49;;;;;;;10.17;9.17;;;14.10;95.70;;;;;;5064510;28;20240;-86
2022/10/13 02:45:15;;;;;;;11.37;9.80;;;14.10;96.20;;;;;;5067292;28;20204;-86
2022/10/13 02:47:41;;;;;;;10.70;9.80;;;14.10;95.60;;;;;;5060758;28;20901;-86
2022/10/13 02:50:07;;;;;;;11.03;10.03;;;14.10;96.00;;;;;;5057970;28;20211;-86
2022/10/13 02:52:33;;;;;;;9.40;8.50;;;14.00;96.10;;;;;;5058480;28;20223;-86
2022/10/13 02:54:59;;;;;;;10.07;9.20;;;14.00;96.20;;;;;;5057511;28;20203;-86
2022/10/13 02:57:24;;;;;;;10.57;9.20;;;14.00;95.90;;;;;;5058805;28;20201;-86
2022/10/13 02:59:50;;;;;;;10.83;9.80;;;14.00;96.00;;;;;;5067715;28;20177;-87
2022/10/13 03:02:16;;;;;;;10.13;9.23;;;14.10;95.80;;;;;;5066844;28;20390;-86
2022/10/13 03:04:42;;;;;;;9.93;9.00;;;13.90;96.10;;;;;;5069257;28;20214;-85
2022/10/13 03:07:08;;;;;;;10.47;9.50;;;14.00;96.60;;;;;;5062202;28;20216;-86
2022/10/13 03:09:33;;;;;;;10.67;9.57;;;13.90;96.30;;;;;;5066213;28;20221;-86
2022/10/13 03:11:59;;;;;;;9.67;8.83;;;13.80;96.20;;;;;;5056830;28;20240;-86
2022/10/13 03:14:25;;;;;;;10.07;9.07;;;13.70;97.10;;;;;;5067736;28;20199;-86
2022/10/13 03:16:50;;;;;;;9.77;8.97;;;13.80;97.30;;;;;;5053367;28;20252;-86
2022/10/13 03:19:16;;;;;;;10.30;9.37;;;13.70;97.00;;;;;;5056863;28;20223;-86
2022/10/13 03:21:42;;;;;;;10.07;9.07;;;13.70;96.90;;;;;;5049594;28;20613;-86
2022/10/13 03:24:07;;;;;;;10.00;9.10;;;13.70;96.90;;;;;;5053985;28;20195;-86
2022/10/13 03:26:34;;;;;;;10.77;9.40;;;13.80;96.90;;;;;;5046035;28;20898;-86
2022/10/13 03:28:59;;;;;;;10.90;9.90;;;13.80;96.70;;;;;;5056323;28;20268;-86
2022/10/13 03:31:25;;;;;;;10.57;9.67;;;13.80;96.40;;;;;;5053072;28;20601;-87
2022/10/13 03:33:51;;;;;;;10.17;9.37;;;13.80;96.50;;;;;;5056697;28;20218;-87
2022/10/13 03:36:17;;;;;;;9.87;9.07;;;13.80;96.60;;;;;;5039716;28;20721;-86
2022/10/13 03:38:44;;;;;;;11.40;9.63;;;13.80;96.30;;;;;;5056870;28;20520;-87
2022/10/13 03:41:13;;;;;;;10.03;9.13;;;13.80;96.20;;;;;;5056475;28;20251;-87
2022/10/13 03:43:40;;;;;;;10.47;9.57;;;13.70;96.80;;;;;;5056208;28;20232;-88
2022/10/13 03:46:07;;;;;;;10.60;9.50;;;13.60;97.30;;;;;;5057823;28;20228;-88
2022/10/13 03:48:34;;;;;;;11.40;10.30;;;13.60;97.60;;;;;;5068940;28;20223;-87
2022/10/13 03:51:13;;;;;;;10.67;9.57;;;13.60;97.80;;;;;;5060261;28;20190;-88
2022/10/13 03:53:39;;;;;;;12.20;11.03;;;13.60;98.10;;;;;;5057346;28;20212;-87
2022/10/13 03:56:06;;;;;;;16.17;14.60;;;13.60;98.80;;;;;;5057740;28;20209;-87
2022/10/13 03:58:32;;;;;;;23.50;19.13;;;13.60;99.20;;;;;;5056378;28;20195;-87
2022/10/13 04:01:03;;;;;;;15.70;12.47;;;13.60;98.90;;;;;;5055498;28;20549;-88
2022/10/13 04:03:29;;;;;;;12.67;11.43;;;13.50;99.00;;;;;;5053816;28;20219;-88
2022/10/13 04:05:54;;;;;;;12.03;10.87;;;13.50;99.90;;;;;;5052744;28;20285;-88
2022/10/13 04:08:20;;;;;;;12.40;11.10;;;13.50;99.90;;;;;;5053101;28;20269;-88
2022/10/13 04:10:46;;;;;;;14.80;13.30;;;13.50;99.90;;;;;;5050661;28;20594;-88
2022/10/13 04:13:11;;;;;;;15.97;13.87;;;13.60;99.70;;;;;;5052977;28;20218;-87
2022/10/13 04:15:39;;;;;;;14.20;12.80;;;13.60;99.30;;;;;;5052601;28;20206;-88
2022/10/13 04:18:06;;;;;;;13.20;12.00;;;13.50;99.60;;;;;;5051531;28;20199;-89
2022/10/13 04:20:36;;;;;;;14.70;13.20;;;13.50;99.30;;;;;;5050283;28;20677;-88
2022/10/13 04:23:01;;;;;;;15.27;13.13;;;13.60;99.00;;;;;;5051133;28;20227;-88
2022/10/13 04:25:27;;;;;;;15.37;13.80;;;13.70;98.80;;;;;;5051565;28;20195;-87
2022/10/13 04:27:53;;;;;;;15.60;14.00;;;13.70;98.80;;;;;;5051122;28;20216;-87
2022/10/13 04:30:18;;;;;;;15.40;13.90;;;13.60;98.90;;;;;;5050654;28;20197;-87
2022/10/13 04:32:44;;;;;;;14.63;13.10;;;13.80;98.80;;;;;;5048325;28;20561;-87
2022/10/13 04:35:10;;;;;;;16.60;14.93;;;13.70;98.40;;;;;;5048842;28;20217;-87
2022/10/13 04:37:35;;;;;;;16.03;14.43;;;13.80;98.70;;;;;;5049044;28;20682;-87
2022/10/13 04:40:01;;;;;;;14.03;12.70;;;13.80;98.20;;;;;;5052211;28;20204;-88
2022/10/13 04:42:27;;;;;;;16.27;14.57;;;13.70;99.30;;;;;;5051354;28;20829;-88
2022/10/13 04:44:53;;;;;;;15.23;13.37;;;13.70;99.30;;;;;;5050732;28;20264;-86
2022/10/13 04:47:18;;;;;;;18.70;13.93;;;13.60;99.30;;;;;;5047747;28;20691;-87
2022/10/13 04:49:44;;;;;;;14.67;13.20;;;13.70;99.60;;;;;;5050985;28;20195;-86
2022/10/13 04:52:10;;;;;;;17.53;13.77;;;13.70;99.40;;;;;;5053826;28;20206;-86
2022/10/13 04:54:35;;;;;;;18.30;12.87;;;13.80;99.80;;;;;;5066383;28;20219;-86
2022/10/13 04:57:01;;;;;;;14.73;13.33;;;13.80;99.90;;;;;;5072168;28;20174;-87
2022/10/13 04:59:27;;;;;;;14.50;13.00;;;13.70;99.90;;;;;;5074841;28;20194;-87
2022/10/13 05:01:53;;;;;;;18.83;14.17;;;13.70;99.90;;;;;;5056482;28;20266;-86
2022/10/13 05:04:18;;;;;;;20.27;14.43;;;13.70;99.90;;;;;;5052762;28;20202;-87
2022/10/13 05:06:44;;;;;;;22.63;14.57;;;13.60;99.90;;;;;;5054863;28;20938;-87
2022/10/13 05:09:17;;;;;;;18.17;14.03;;;13.60;99.90;;;;;;5051765;28;20203;-87
2022/10/13 05:11:43;;;;;;;17.00;14.13;;;13.60;99.90;;;;;;5052982;28;20172;-87
2022/10/13 05:14:09;;;;;;;15.30;13.67;;;13.70;99.90;;;;;;5053642;28;20192;-87
2022/10/13 05:16:35;;;;;;;15.33;13.27;;;13.70;99.90;;;;;;5053130;28;20193;-87
2022/10/13 05:19:00;;;;;;;14.63;12.83;;;13.60;99.90;;;;;;5050553;28;20222;-87
2022/10/13 05:21:28;;;;;;;19.33;14.97;;;13.50;99.90;;;;;;5053529;28;20203;-87
2022/10/13 05:23:55;;;;;;;14.13;12.63;;;13.50;99.90;;;;;;5052217;28;20203;-87
2022/10/13 05:26:27;;;;;;;12.40;11.20;;;13.30;99.90;;;;;;5053704;28;20215;-87
2022/10/13 05:28:57;;;;;;;12.57;11.27;;;13.20;99.90;;;;;;5052820;28;20208;-87
2022/10/13 05:31:24;;;;;;;12.10;10.73;;;13.10;99.90;;;;;;5048235;28;20834;-87
2022/10/13 05:33:51;;;;;;;11.07;10.07;;;13.20;99.90;;;;;;5052612;28;20903;-88
2022/10/13 05:36:22;;;;;;;11.83;10.63;;;13.20;99.90;;;;;;5054311;28;20230;-87
2022/10/13 05:38:53;;;;;;;10.27;9.27;;;13.30;99.90;;;;;;5054583;28;20230;-87
2022/10/13 05:41:20;;;;;;;11.17;10.10;;;13.30;99.90;;;;;;5054358;28;20198;-88
2022/10/13 05:43:45;;;;;;;11.40;10.30;;;13.40;99.90;;;;;;5053771;28;20219;-87
2022/10/13 05:46:11;;;;;;;10.63;9.70;;;13.40;99.90;;;;;;5061607;28;20224;-88
2022/10/13 05:48:37;;;;;;;10.63;9.63;;;13.50;99.90;;;;;;5047243;28;20219;-88
2022/10/13 05:51:11;;;;;;;11.60;10.53;;;13.50;99.90;;;;;;5069608;28;20244;-86
2022/10/13 05:53:39;;;;;;;11.27;10.37;;;13.50;99.90;;;;;;5053137;28;20224;-86
2022/10/13 05:56:11;;;;;;;11.80;10.70;;;13.50;99.90;;;;;;5061121;28;20861;-86
2022/10/13 05:58:47;;;;;;;10.80;9.80;;;13.40;99.90;;;;;;5057047;28;20295;-87
2022/10/13 06:01:17;;;;;;;11.90;10.80;;;13.40;99.90;;;;;;5051211;28;20264;-87
2022/10/13 06:03:44;;;;;;;12.83;11.27;;;13.40;99.90;;;;;;5049246;28;20210;-87
2022/10/13 06:06:10;;;;;;;12.23;11.03;;;13.30;99.90;;;;;;5047791;28;20283;-87
2022/10/13 06:08:37;;;;;;;13.50;10.93;;;13.20;99.90;;;;;;5048665;28;20422;-87
2022/10/13 06:11:03;;;;;;;11.63;10.40;;;13.10;99.90;;;;;;5046897;28;20246;-87
2022/10/13 06:13:29;;;;;;;11.93;10.23;;;13.10;99.90;;;;;;5046444;28;20214;-87
2022/10/13 06:15:55;;;;;;;14.17;11.17;;;13.00;99.90;;;;;;5047349;28;20193;-87
2022/10/13 06:18:21;;;;;;;11.33;10.20;;;12.90;99.90;;;;;;5047704;28;20234;-88
2022/10/13 06:20:46;;;;;;;14.20;12.83;;;13.00;99.90;;;;;;5050289;28;20188;-87
2022/10/13 06:23:12;;;;;;;12.70;11.60;;;12.90;99.90;;;;;;5043954;28;20223;-87
2022/10/13 06:25:45;;;;;;;13.53;10.53;;;13.00;99.90;;;;;;5051531;28;20196;-87
2022/10/13 06:28:11;;;;;;;12.53;11.23;;;13.20;99.90;;;;;;5054166;28;20215;-87
2022/10/13 06:30:37;;;;;;;11.23;10.13;;;13.20;99.90;;;;;;5064761;28;20189;-87
2022/10/13 06:33:03;;;;;;;11.27;10.17;;;13.30;99.90;;;;;;5070277;28;20374;-87
2022/10/13 06:35:29;;;;;;;11.63;10.53;;;13.30;99.90;;;;;;5051734;28;20230;-88
2022/10/13 06:37:56;;;;;;;11.70;10.43;;;13.40;99.90;;;;;;5049603;28;20184;-87
2022/10/13 06:40:22;;;;;;;12.67;11.67;;;13.50;99.90;;;;;;5050368;28;20199;-87
2022/10/13 06:42:50;;;;;;;12.13;10.83;;;13.40;99.90;;;;;;5050490;28;20212;-87
2022/10/13 06:45:18;;;;;;;14.13;12.87;;;13.40;99.90;;;;;;5049377;28;20189;-87
2022/10/13 06:47:44;;;;;;;12.77;11.67;;;13.30;99.90;;;;;;5050902;28;20575;-87
2022/10/13 06:50:10;;;;;;;13.97;12.57;;;13.30;99.90;;;;;;5042169;28;20223;-87
2022/10/13 06:52:36;;;;;;;14.93;13.43;;;13.40;99.90;;;;;;5051044;28;20281;-88
2022/10/13 06:55:02;;;;;;;19.73;17.87;;;13.50;99.90;;;;;;5050589;28;20238;-87
2022/10/13 06:57:27;;;;;;;20.57;15.27;;;13.50;99.90;;;;;;5051551;28;20587;-87
2022/10/13 06:59:53;;;;;;;14.00;12.70;;;13.50;99.90;;;;;;5048764;28;20245;-87
2022/10/13 07:02:19;;;;;;;13.57;12.30;;;13.50;99.90;;;;;;5045096;28;20281;-88
2022/10/13 07:04:46;;;;;;;15.77;13.73;;;13.60;99.90;;;;;;5045379;28;20191;-85
2022/10/13 07:07:12;;;;;;;13.70;12.40;;;13.70;99.90;;;;;;5032069;28;20311;-87
2022/10/13 07:09:38;;;;;;;15.50;14.00;;;13.80;99.90;;;;;;5039486;28;20269;-87
2022/10/13 07:12:04;;;;;;;14.07;12.77;;;13.80;99.90;;;;;;5040910;28;20214;-88
2022/10/13 07:14:30;;;;;;;13.03;11.67;;;13.70;99.90;;;;;;5039879;28;20279;-88
2022/10/13 07:16:55;;;;;;;15.10;13.70;;;13.70;99.90;;;;;;5040907;28;20672;-87
2022/10/13 07:19:21;;;;;;;15.10;13.70;;;13.70;99.90;;;;;;5039702;28;20214;-88
2022/10/13 07:21:47;;;;;;;14.27;12.93;;;13.60;99.90;;;;;;5031719;28;20249;-87
2022/10/13 07:24:12;;;;;;;15.37;13.83;;;13.70;99.90;;;;;;5026418;28;20579;-87
2022/10/13 07:26:38;;;;;;;14.20;12.60;;;13.70;99.90;;;;;;5039372;28;20605;-87
2022/10/13 07:29:04;;;;;;;14.60;13.17;;;13.80;99.90;;;;;;5044898;28;20205;-89
2022/10/13 07:31:30;;;;;;;13.57;12.13;;;13.70;99.90;;;;;;5045742;28;20182;-86
2022/10/13 07:33:58;;;;;;;13.87;12.33;;;13.80;99.90;;;;;;5046835;28;20218;-87
2022/10/13 07:36:24;;;;;;;13.77;12.47;;;13.90;99.90;;;;;;5047380;28;20283;-86
2022/10/13 07:38:50;;;;;;;14.27;12.87;;;14.00;99.90;;;;;;5049581;28;20199;-87
2022/10/13 07:41:16;;;;;;;14.33;12.90;;;14.10;99.90;;;;;;5047115;28;20291;-86
2022/10/13 07:43:42;;;;;;;16.03;14.50;;;14.00;99.90;;;;;;5048573;28;20530;-86
2022/10/13 07:46:11;;;;;;;16.50;14.87;;;14.10;99.90;;;;;;5048603;28;20194;-87
2022/10/13 07:48:36;;;;;;;15.37;13.70;;;13.90;99.90;;;;;;5048628;28;20208;-87
2022/10/13 07:51:04;;;;;;;15.43;13.83;;;13.90;99.90;;;;;;5040413;28;20300;-86
2022/10/13 07:53:30;;;;;;;13.37;12.17;;;14.00;99.90;;;;;;5039536;28;20240;-86
2022/10/13 07:56:00;;;;;;;14.63;12.50;;;14.20;99.90;;;;;;5049102;28;20186;-86
2022/10/13 07:58:25;;;;;;;15.03;13.53;;;14.20;99.90;;;;;;5049745;28;20553;-86
2022/10/13 08:00:59;;;;;;;15.00;13.53;;;14.30;99.90;;;;;;5049406;28;20192;-87
2022/10/13 08:03:25;;;;;;;14.43;13.03;;;14.50;99.90;;;;;;5046128;28;20216;-87
2022/10/13 08:05:52;;;;;;;14.97;13.57;;;14.60;99.90;;;;;;5047692;28;20859;-87
2022/10/13 08:08:17;;;;;;;15.30;13.90;;;14.50;99.90;;;;;;5046931;28;20205;-87
2022/10/13 08:10:43;;;;;;;15.17;12.63;;;14.60;99.90;;;;;;5047157;28;20186;-86
2022/10/13 08:13:10;;;;;;;13.23;11.93;;;14.60;99.90;;;;;;5046295;28;20265;-87
2022/10/13 08:15:40;;;;;;;13.90;12.50;;;14.60;99.90;;;;;;5046981;28;20188;-87
2022/10/13 08:18:06;;;;;;;15.90;14.37;;;14.50;99.90;;;;;;5047495;28;20267;-87
2022/10/13 08:20:33;;;;;;;18.90;14.40;;;14.50;99.90;;;;;;5047482;28;20191;-87
2022/10/13 08:22:59;;;;;;;14.83;13.53;;;14.40;99.90;;;;;;5045740;28;20869;-87
2022/10/13 08:25:24;;;;;;;15.33;13.83;;;14.40;99.90;;;;;;5041001;28;20219;-87
2022/10/13 08:27:50;;;;;;;15.80;14.30;;;14.40;99.90;;;;;;5048290;28;20302;-87
2022/10/13 08:30:16;;;;;;;16.53;14.93;;;14.50;99.90;;;;;;5048347;28;20195;-87
2022/10/13 08:32:42;;;;;;;16.40;14.63;;;14.40;99.90;;;;;;5047461;28;20266;-87
2022/10/13 08:35:08;;;;;;;15.63;14.17;;;14.50;99.90;;;;;;5050149;28;20200;-87
2022/10/13 08:37:34;;;;;;;15.77;14.27;;;14.60;99.90;;;;;;5048952;28;20223;-87
2022/10/13 08:40:00;;;;;;;17.20;15.43;;;14.70;99.90;;;;;;5050482;28;20202;-87
2022/10/13 08:42:27;;;;;;;16.27;14.20;;;14.70;99.90;;;;;;5050544;28;20224;-87
2022/10/13 08:44:58;;;;;;;17.37;15.27;;;14.70;99.90;;;;;;5044248;28;20340;-87
2022/10/13 08:47:32;;;;;;;15.87;14.37;;;14.80;99.90;;;;;;5046851;28;20208;-86
2022/10/13 08:50:02;;;;;;;16.30;14.80;;;14.90;99.90;;;;;;5046773;28;20190;-86
2022/10/13 08:52:43;;;;;;;18.20;16.33;;;14.90;99.90;;;;;;5050937;28;20757;-87
2022/10/13 08:55:39;;;;;;;18.60;16.77;;;14.80;99.90;;;;;;5039339;28;20199;-86
2022/10/13 08:58:16;;;;;;;19.33;17.33;;;14.80;99.90;;;;;;5045804;28;20731;-87
2022/10/13 09:00:42;;;;;;;16.73;15.13;;;14.80;99.90;;;;;;5047478;28;20196;-87
2022/10/13 09:03:18;;;;;;;18.00;16.20;;;14.80;99.90;;;;;;5046090;28;20220;-86
2022/10/13 09:06:09;;;;;;;18.83;16.53;;;14.80;99.90;;;;;;5046085;28;20192;-85
2022/10/13 09:09:06;;;;;;;18.83;16.97;;;14.80;99.90;;;;;;5039121;28;20216;-86
2022/10/13 09:11:35;;;;;;;19.53;16.70;;;14.80;99.90;;;;;;5044350;28;20204;-86
2022/10/13 09:14:10;;;;;;;17.77;15.97;;;14.60;99.90;;;;;;5048419;28;20230;-86
2022/10/13 09:16:41;;;;;;;17.83;16.03;;;14.70;99.90;;;;;;5059433;28;20240;-86
2022/10/13 09:19:19;;;;;;;16.87;15.20;;;14.80;99.90;;;;;;5049965;28;20850;-86
2022/10/13 09:21:46;;;;;;;17.90;16.00;;;14.90;99.90;;;;;;5058977;28;20202;-86
2022/10/13 09:24:18;;;;;;;18.37;16.57;;;14.80;99.90;;;;;;5059194;28;20619;-87
2022/10/13 09:26:46;;;;;;;20.50;18.30;;;15.00;99.90;;;;;;5051549;28;20648;-87
2022/10/13 09:29:23;;;;;;;19.03;16.43;;;14.90;99.90;;;;;;5044988;28;20189;-86
2022/10/13 09:31:50;;;;;;;17.07;15.40;;;14.90;99.90;;;;;;5045716;28;20196;-87
2022/10/13 09:34:25;;;;;;;18.97;17.07;;;15.10;99.90;;;;;;5044042;28;20192;-86
2022/10/13 09:37:04;;;;;;;17.67;16.00;;;14.90;99.90;;;;;;5040626;28;20609;-86
2022/10/13 09:39:32;;;;;;;18.37;16.53;;;14.90;99.90;;;;;;5050436;28;20178;-87
2022/10/13 09:42:37;;;;;;;19.73;17.70;;;15.20;99.60;;;;;;5049517;28;20212;-86
2022/10/13 09:45:17;;;;;;;18.00;16.17;;;15.50;98.70;;;;;;4994785;28;20250;-86
2022/10/13 09:48:20;;;;;;;19.47;17.43;;;15.40;98.90;;;;;;4993861;28;20229;-86
2022/10/13 09:50:52;;;;;;;19.27;17.50;;;15.60;97.40;;;;;;5041559;28;20565;-87
2022/10/13 09:53:39;;;;;;;20.73;17.63;;;15.70;98.20;;;;;;5049709;28;20241;-86
2022/10/13 09:56:34;;;;;;;21.70;19.07;;;15.80;99.40;;;;;;5045942;28;20182;-87
2022/10/13 09:59:14;;;;;;;21.93;19.67;;;15.90;98.20;;;;;;5057458;28;20188;-87
2022/10/13 10:01:44;;;;;;;22.10;19.73;;;15.80;97.60;;;;;;5067534;28;20184;-87
2022/10/13 10:04:15;;;;;;;21.40;18.83;;;15.80;98.60;;;;;;5045994;28;20204;-87
2022/10/13 10:06:41;;;;;;;24.90;20.40;;;15.60;99.90;;;;;;5050402;28;20242;-86
2022/10/13 10:09:33;;;;;;;22.43;20.10;;;15.30;99.90;;;;;;5053323;28;20214;-87
2022/10/13 10:12:00;;;;;;;22.07;19.53;;;15.20;99.90;;;;;;5049843;28;20201;-86
2022/10/13 10:14:30;;;;;;;20.60;18.80;;;15.50;99.90;;;;;;5044721;28;20563;-86
2022/10/13 10:17:11;;;;;;;21.07;18.80;;;15.60;99.90;;;;;;5053073;28;20194;-86
2022/10/13 10:19:58;;;;;;;21.73;19.43;;;15.70;99.90;;;;;;5064076;28;20556;-86
2022/10/13 10:22:34;;;;;;;21.47;19.47;;;16.00;97.70;;;;;;5045882;28;20592;-88
2022/10/13 10:25:18;;;;;;;19.80;17.90;;;16.20;96.40;;;;;;5048300;28;20197;-87
2022/10/13 10:27:54;;;;;;;21.00;19.00;;;16.40;95.90;;;;;;5068766;28;21021;-88
2022/10/13 10:30:20;;;;;;;23.37;20.20;;;16.40;95.80;;;;;;5052633;28;20606;-87
2022/10/13 10:33:13;;;;;;;23.53;21.43;;;16.40;96.50;;;;;;5050051;28;20970;-87
2022/10/13 10:36:22;;;;;;;22.10;20.00;;;16.20;97.10;;;;;;5045644;28;20800;-87
2022/10/13 10:39:00;;;;;;;22.40;20.23;;;16.00;99.10;;;;;;4994486;28;20688;-87
2022/10/13 10:41:48;;;;;;;22.10;19.83;;;15.80;99.60;;;;;;4996648;28;20198;-87
2022/10/13 10:44:18;;;;;;;21.83;19.63;;;16.00;98.20;;;;;;5042597;28;20265;-87
2022/10/13 10:46:48;;;;;;;22.53;20.20;;;16.10;98.10;;;;;;5045188;28;20217;-87
2022/10/13 10:49:22;;;;;;;23.23;20.07;;;16.30;97.30;;;;;;5045880;28;20198;-87
2022/10/13 10:51:48;;;;;;;21.10;18.83;;;16.30;97.10;;;;;;5047845;28;20182;-87
2022/10/13 10:54:37;;;;;;;20.57;18.23;;;16.20;98.30;;;;;;5046937;28;20207;-87
2022/10/13 10:57:17;;;;;;;20.17;18.23;;;16.10;98.60;;;;;;5047746;28;20203;-87
2022/10/13 11:00:10;;;;;;;21.42;19.33;;;16.30;97.80;;;;;;5045703;28;20205;-87
2022/10/13 11:03:15;;;;;;;25.23;20.55;;;16.40;97.10;;;;;;5043650;28;21219;-87
2022/10/13 11:06:00;;;;;;;22.73;20.37;;;16.30;96.50;;;;;;5024807;28;20186;-87
2022/10/13 11:08:46;;;;;;;24.92;19.67;;;16.30;97.30;;;;;;5046515;28;20225;-87
2022/10/13 11:11:32;;;;;;;21.40;19.02;;;16.20;98.50;;;;;;5057877;28;20191;-87
2022/10/13 11:13:58;;;;;;;22.03;19.73;;;16.30;97.30;;;;;;5045285;28;20206;-86
2022/10/13 11:16:33;;;;;;;21.80;19.70;;;16.30;97.20;;;;;;5045596;28;20191;-87
2022/10/13 11:19:27;;;;;;;24.60;21.53;;;16.40;97.30;;;;;;5040242;28;20186;-87
2022/10/13 11:21:56;;;;;;;25.27;21.57;;;16.00;99.40;;;;;;5041478;28;20218;-87
2022/10/13 11:24:40;;;;;;;23.87;21.33;;;15.80;99.90;;;;;;5046339;28;20193;-87
2022/10/13 11:27:11;;;;;;;22.00;19.87;;;15.90;99.90;;;;;;5047462;28;20437;-87
2022/10/13 11:29:42;;;;;;;22.87;20.47;;;16.10;99.00;;;;;;5046414;28;20224;-87
2022/10/13 11:35:04;;;;;;;22.80;20.43;;;16.10;98.70;;;;;;5042361;28;20194;-86
2022/10/13 11:38:03;;;;;;;23.13;20.13;;;16.30;98.50;;;;;;5047439;28;20185;-87
2022/10/13 11:41:11;;;;;;;23.10;20.90;;;16.50;96.40;;;;;;5036849;28;20194;-86
2022/10/13 11:44:11;;;;;;;24.03;21.70;;;16.70;96.40;;;;;;5009235;28;20220;-88
2022/10/13 11:47:01;;;;;;;27.27;20.73;;;16.70;97.80;;;;;;5049971;28;20387;-87
2022/10/13 11:49:45;;;;;;;23.77;21.03;;;17.00;95.00;;;;;;5045071;28;20222;-87
2022/10/13 11:52:17;;;;;;;22.90;20.23;;;17.10;94.00;;;;;;5051500;28;20198;-87
2022/10/13 11:54:45;;;;;;;23.13;20.70;;;17.20;93.50;;;;;;5048160;28;20198;-87
2022/10/13 11:57:25;;;;;;;24.20;21.60;;;17.00;94.20;;;;;;5052271;28;20886;-87
2022/10/13 11:59:54;;;;;;;23.63;21.07;;;16.70;96.60;;;;;;5049642;28;20186;-87
2022/10/13 12:02:22;;;;;;;21.00;18.90;;;16.50;98.00;;;;;;5047362;28;20650;-87
2022/10/13 12:05:19;;;;;;;22.20;20.02;;;16.80;96.20;;;;;;5038466;28;20203;-88
2022/10/13 12:07:47;;;;;;;22.23;20.03;;;17.10;94.80;;;;;;5044646;28;20201;-87
2022/10/13 12:10:28;;;;;;;23.80;21.25;;;17.10;95.00;;;;;;5053101;28;20190;-88
2022/10/13 12:12:54;;;;;;;25.15;20.35;;;16.90;96.40;;;;;;5064706;28;20202;-88
2022/10/13 12:15:32;;;;;;;22.20;19.97;;;17.00;96.10;;;;;;5051779;28;20232;-88
2022/10/13 12:17:58;;;;;;;24.07;21.53;;;16.80;96.80;;;;;;5049548;28;20236;-88
2022/10/13 12:20:33;;;;;;;25.17;20.40;;;16.80;97.00;;;;;;5045216;28;20194;-87
2022/10/13 12:22:59;;;;;;;22.40;20.00;;;16.50;98.60;;;;;;5044256;28;20214;-88
2022/10/13 12:25:29;;;;;;;23.53;20.40;;;16.60;97.90;;;;;;5051257;28;20200;-88
2022/10/13 12:27:58;;;;;;;23.57;19.93;;;16.70;98.00;;;;;;5052108;28;20222;-87
2022/10/13 12:30:35;;;;;;;22.53;20.10;;;16.80;97.00;;;;;;5052478;28;20192;-88
2022/10/13 12:33:01;;;;;;;22.10;19.83;;;16.80;97.60;;;;;;5050876;28;20565;-87
2022/10/13 12:35:32;;;;;;;23.35;19.27;;;16.70;97.90;;;;;;5051620;28;20195;-87
2022/10/13 12:38:02;;;;;;;23.95;19.33;;;16.90;97.60;;;;;;5050849;28;20667;-88
2022/10/13 12:40:29;;;;;;;21.67;18.73;;;16.90;97.40;;;;;;5052473;28;20886;-87
2022/10/13 12:42:55;;;;;;;22.48;19.42;;;17.10;96.20;;;;;;5052192;28;20595;-86
2022/10/13 12:45:29;;;;;;;20.50;18.58;;;17.00;96.70;;;;;;5054050;28;20218;-87
2022/10/13 12:47:55;;;;;;;22.00;19.80;;;17.10;96.50;;;;;;5047493;28;20208;-87
2022/10/13 12:50:29;;;;;;;22.15;17.70;;;17.10;98.40;;;;;;5050000;28;20198;-87
2022/10/13 12:53:07;;;;;;;18.98;17.08;;;17.10;97.40;;;;;;5049380;28;20218;-87
2022/10/13 12:55:34;;;;;;;20.85;18.48;;;17.30;96.00;;;;;;5051222;28;20686;-87